Terminal Aerodrome Forecast
Issued by NWS Cleveland, OH

Home | Current Version | Previous Version | Text Only | Print | Product List | Glossary On
Versions: 1 2 3 4 5 6 7 8 9 10 11 12 13 14 15 16 17 18 19 20
000
FTUS41 KCLE 301700
TAFYNG
TAF
KYNG 301728Z 3018/3118 27015G25KT P6SM SCT040
      TEMPO 3018/3020 BKN040
     FM310000 26010KT P6SM SCT100
     FM310600 24008KT P6SM OVC100
     FM310800 20006KT 4SM -SHRASN OVC035
     FM311200 18008KT 3SM -SHRA OVC025
     FM311600 27012KT P6SM OVC025=

USA.gov is the U.S. government's official web portal to all federal, state and local government web resources and services.